Lorette — WDF2346 — position and weather

sailwx.info

Track history (hours):
 
Tides and Currents Weather Stations Pressure Air Temp Water Temp Dewpoint Dewpoint Depression Visibility Wind Speed Wind Dir Waves Ship Positions

Lorette

Owner: Norfolk Tug Company, Noroflk, VA. More information available from US FCC via Universal Licensing System and Coast Guard Vessel Documentation Center.

Last reported at 2017-Oct-18 16:57 UTC. Time now 2017-Oct-20 03:20 UTC.
Position N 36°52' W 076°20'.

Length 40 m; draft 3 m.

Type: Tug. MMSI: 367427630.

Date/timePositionNaut miles runAvg speedWind from/ knotsBaromVisibWave heightAir tempDewpointWater temp
2017-Oct-18 16:57N 36°52' W 076°20'3 6.4
2017-Oct-18 16:30N 36°50' W 076°18'1 1.8
2017-Oct-18 15:54N 36°49' W 076°17'0 0.1
2017-Oct-18 15:21N 36°49' W 076°17'0 0.0
2017-Oct-18 15:00N 36°49' W 076°17'0 0.0
2017-Oct-18 14:00N 36°49' W 076°17'0 0.0
2017-Oct-18 13:30N 36°49' W 076°17'0 0.0
2017-Oct-18 12:56N 36°49' W 076°17'0 0.0
2017-Oct-18 12:21N 36°49' W 076°17'0 0.0
2017-Oct-18 11:46N 36°49' W 076°17'0 0.0
2017-Oct-18 11:30N 36°49' W 076°17'0 0.0
2017-Oct-18 11:00N 36°49' W 076°17'0 0.0
2017-Oct-18 10:30N 36°49' W 076°17'0 0.0
2017-Oct-18 09:53N 36°49' W 076°17'0 0.0
2017-Oct-18 09:25N 36°49' W 076°17'0 0.0
2017-Oct-18 08:53N 36°49' W 076°17'0 0.0
2017-Oct-18 08:30N 36°49' W 076°17'0 0.0
2017-Oct-18 07:55N 36°49' W 076°17'0 0.0
2017-Oct-18 07:28N 36°49' W 076°17'0 0.0
2017-Oct-18 07:00N 36°49' W 076°17'0 0.0
2017-Oct-18 06:26N 36°49' W 076°17'0 0.0
2017-Oct-18 06:00N 36°49' W 076°17'0 0.0
2017-Oct-18 05:29N 36°49' W 076°17'0 0.0
2017-Oct-18 04:59N 36°49' W 076°17'0 0.0
2017-Oct-18 04:27N 36°49' W 076°17'0 0.0
2017-Oct-18 03:44N 36°49' W 076°17'5 2.7
2017-Oct-18 01:59N 36°53' W 076°20'5 0.1
2017-Oct-16 08:45N 36°57' W 076°24'3 7.6
2017-Oct-16 08:24N 36°57' W 076°21'3 7.3
2017-Oct-16 08:00N 36°54' W 076°20'3 6.8
2017-Oct-16 07:30N 36°51' W 076°18'2 4.2
2017-Oct-16 07:00N 36°49' W 076°17'0 0.1
2017-Oct-16 06:30N 36°49' W 076°17'0 0.0
2017-Oct-16 06:00N 36°49' W 076°17'0 0.0
2017-Oct-16 05:30N 36°49' W 076°17'0 0.0
2017-Oct-16 05:00N 36°49' W 076°17'0 0.0
2017-Oct-16 04:30N 36°49' W 076°17'0 0.0
2017-Oct-16 04:00N 36°49' W 076°17'0 0.0
2017-Oct-16 03:30N 36°49' W 076°17'0 0.0
2017-Oct-16 03:00N 36°49' W 076°17'0 0.0
2017-Oct-16 02:30N 36°49' W 076°17'0 0.0
2017-Oct-16 02:00N 36°49' W 076°17'0 0.0
2017-Oct-16 01:30N 36°49' W 076°17'0 0.0
2017-Oct-16 01:00N 36°49' W 076°17'0 0.0
2017-Oct-16 00:30N 36°49' W 076°17'0 0.0
2017-Oct-16 00:00N 36°49' W 076°17'0 0.0
2017-Oct-15 23:30N 36°49' W 076°17'0 0.0
2017-Oct-15 23:00N 36°49' W 076°17'0 0.0
2017-Oct-15 22:30N 36°49' W 076°17'0 0.0
2017-Oct-15 22:00N 36°49' W 076°17'0 0.0
2017-Oct-15 21:30N 36°49' W 076°17'0 0.0
2017-Oct-15 21:00N 36°49' W 076°17'0 0.0
2017-Oct-15 20:30N 36°49' W 076°17'0 0.0
2017-Oct-15 20:00N 36°49' W 076°17'0 0.0
2017-Oct-15 19:30N 36°49' W 076°17'5 1.5
2017-Oct-15 15:47N 36°54' W 076°20'1 4.7
2017-Oct-15 15:30N 36°55' W 076°20'3 0.1
2017-Oct-13 18:01N 36°53' W 076°20'0 6.8
2017-Oct-13 17:59N 36°52' W 076°20'3 6.2
2017-Oct-13 17:30N 36°50' W 076°18'1 2.3
2017-Oct-13 17:00N 36°49' W 076°17'1 2.8
2017-Oct-13 16:30N 36°50' W 076°17'1 1.1
2017-Oct-13 16:00N 36°50' W 076°16'0 0.0
2017-Oct-13 15:30N 36°50' W 076°16'0 0.0
2017-Oct-13 15:00N 36°50' W 076°16'0 0.0
2017-Oct-13 14:30N 36°50' W 076°16'0 1.0
2017-Oct-13 14:00N 36°51' W 076°16'0 0.8
2017-Oct-13 13:30N 36°50' W 076°16'1 1.5
2017-Oct-13 13:00N 36°50' W 076°17'2 3.7
2017-Oct-13 12:30N 36°52' W 076°19'2 4.2
2017-Oct-13 12:00N 36°53' W 076°20'2 4.3
2017-Oct-13 11:30N 36°56' W 076°20'3 0.1
2017-Oct-11 19:28N 36°53' W 076°20'3 6.3
2017-Oct-11 19:00N 36°51' W 076°18'1 2.1
2017-Oct-11 18:24N 36°50' W 076°16'0 0.2
2017-Oct-11 17:59N 36°50' W 076°16'0 0.0
2017-Oct-11 17:30N 36°50' W 076°16'0 0.0
2017-Oct-11 16:59N 36°50' W 076°16'114 4.5
2017-Oct-10 15:15N 38°45' W 076°23'0 0.0
2017-Oct-10 14:53N 38°45' W 076°23'0 0.0
2017-Oct-10 13:56N 38°45' W 076°23'0 0.0
2017-Oct-10 13:15N 38°45' W 076°22'0 0.0
2017-Oct-10 13:00N 38°45' W 076°22'0 0.0
2017-Oct-10 12:30N 38°45' W 076°22'0 0.0
2017-Oct-10 12:00N 38°45' W 076°22'0 0.0
2017-Oct-10 11:30N 38°45' W 076°22'0 0.0
2017-Oct-10 10:58N 38°45' W 076°22'0 0.0
2017-Oct-10 10:30N 38°45' W 076°22'0 0.0
2017-Oct-10 09:59N 38°45' W 076°22'0 0.0
2017-Oct-10 09:30N 38°45' W 076°22'0 0.0
2017-Oct-10 09:01N 38°45' W 076°22'0 0.0
2017-Oct-10 08:30N 38°45' W 076°22'0 0.0
2017-Oct-10 08:00N 38°45' W 076°22'0 0.0
2017-Oct-10 07:31N 38°45' W 076°22'0 0.0
2017-Oct-10 07:01N 38°45' W 076°22'0 0.0
2017-Oct-10 06:31N 38°45' W 076°22'0 0.0
2017-Oct-10 06:00N 38°45' W 076°22'0 0.0
2017-Oct-10 05:31N 38°45' W 076°22'0 0.0
2017-Oct-10 05:00N 38°45' W 076°22'0 0.0
2017-Oct-10 04:30N 38°45' W 076°22'0 0.0
2017-Oct-10 04:01N 38°45' W 076°22'0 0.0
2017-Oct-09 13:29N 38°45' W 076°23'0 0.0
2017-Oct-09 12:25N 38°45' W 076°23'0 0.0
2017-Oct-09 11:21N 38°45' W 076°23'0 0.0
2017-Oct-09 10:37N 38°45' W 076°23'0 0.0
2017-Oct-09 10:22N 38°45' W 076°23'1 1.6
2017-Oct-09 10:00N 38°44' W 076°23'3 6.2
2017-Oct-09 09:30N 38°42' W 076°26'4 6.6
2017-Oct-09 08:56N 38°39' W 076°28'3 6.7
2017-Oct-09 08:28N 38°35' W 076°28'3 6.6
2017-Oct-09 07:57N 38°32' W 076°28'3 6.6
2017-Oct-09 07:29N 38°29' W 076°26'3 6.5
2017-Oct-09 07:00N 38°27' W 076°24'3 6.4
2017-Oct-09 06:30N 38°24' W 076°22'3 6.1
2017-Oct-09 06:00N 38°21' W 076°21'3 6.2
2017-Oct-09 05:30N 38°18' W 076°20'3 6.3
2017-Oct-09 05:00N 38°15' W 076°19'3 6.2
2017-Oct-09 04:27N 38°12' W 076°18'3 6.1
2017-Oct-09 03:57N 38°09' W 076°16'3 6.1
2017-Oct-09 03:26N 38°06' W 076°15'3 6.1
2017-Oct-09 03:00N 38°03' W 076°14'9 5.7
2017-Oct-09 01:24N 37°54' W 076°11'2 4.6
2017-Oct-09 00:58N 37°52' W 076°11'  
Track history (hours):
 
Tides and Currents Weather Stations Pressure Air Temp Water Temp Dewpoint Dewpoint Depression Visibility Wind Speed Wind Dir Waves Ship Positions

Lorette

Owner: Norfolk Tug Company, Noroflk, VA. More information available from US FCC via Universal Licensing System and Coast Guard Vessel Documentation Center.

Last reported at 2017-Oct-18 16:57 UTC. Time now 2017-Oct-20 03:20 UTC.
Position N 36°52' W 076°20'.

Length 40 m; draft 3 m.

Type: Tug. MMSI: 367427630.

Date/timePositionNaut miles runAvg speedWind from/ knotsBaromVisibWave heightAir tempDewpointWater temp
2017-Oct-18 16:57N 36°52' W 076°20'3 6.4
2017-Oct-18 16:30N 36°50' W 076°18'1 1.8
2017-Oct-18 15:54N 36°49' W 076°17'0 0.1
2017-Oct-18 15:21N 36°49' W 076°17'0 0.0
2017-Oct-18 15:00N 36°49' W 076°17'0 0.0
2017-Oct-18 14:00N 36°49' W 076°17'0 0.0
2017-Oct-18 13:30N 36°49' W 076°17'0 0.0
2017-Oct-18 12:56N 36°49' W 076°17'0 0.0
2017-Oct-18 12:21N 36°49' W 076°17'0 0.0
2017-Oct-18 11:46N 36°49' W 076°17'0 0.0
2017-Oct-18 11:30N 36°49' W 076°17'0 0.0
2017-Oct-18 11:00N 36°49' W 076°17'0 0.0
2017-Oct-18 10:30N 36°49' W 076°17'0 0.0
2017-Oct-18 09:53N 36°49' W 076°17'0 0.0
2017-Oct-18 09:25N 36°49' W 076°17'0 0.0
2017-Oct-18 08:53N 36°49' W 076°17'0 0.0
2017-Oct-18 08:30N 36°49' W 076°17'0 0.0
2017-Oct-18 07:55N 36°49' W 076°17'0 0.0
2017-Oct-18 07:28N 36°49' W 076°17'0 0.0
2017-Oct-18 07:00N 36°49' W 076°17'0 0.0
2017-Oct-18 06:26N 36°49' W 076°17'0 0.0
2017-Oct-18 06:00N 36°49' W 076°17'0 0.0
2017-Oct-18 05:29N 36°49' W 076°17'0 0.0
2017-Oct-18 04:59N 36°49' W 076°17'0 0.0
2017-Oct-18 04:27N 36°49' W 076°17'0 0.0
2017-Oct-18 03:44N 36°49' W 076°17'5 2.7
2017-Oct-18 01:59N 36°53' W 076°20'5 0.1
2017-Oct-16 08:45N 36°57' W 076°24'3 7.6
2017-Oct-16 08:24N 36°57' W 076°21'3 7.3
2017-Oct-16 08:00N 36°54' W 076°20'3 6.8
2017-Oct-16 07:30N 36°51' W 076°18'2 4.2
2017-Oct-16 07:00N 36°49' W 076°17'0 0.1
2017-Oct-16 06:30N 36°49' W 076°17'0 0.0
2017-Oct-16 06:00N 36°49' W 076°17'0 0.0
2017-Oct-16 05:30N 36°49' W 076°17'0 0.0
2017-Oct-16 05:00N 36°49' W 076°17'0 0.0
2017-Oct-16 04:30N 36°49' W 076°17'0 0.0
2017-Oct-16 04:00N 36°49' W 076°17'0 0.0
2017-Oct-16 03:30N 36°49' W 076°17'0 0.0
2017-Oct-16 03:00N 36°49' W 076°17'0 0.0
2017-Oct-16 02:30N 36°49' W 076°17'0 0.0
2017-Oct-16 02:00N 36°49' W 076°17'0 0.0
2017-Oct-16 01:30N 36°49' W 076°17'0 0.0
2017-Oct-16 01:00N 36°49' W 076°17'0 0.0
2017-Oct-16 00:30N 36°49' W 076°17'0 0.0
2017-Oct-16 00:00N 36°49' W 076°17'0 0.0
2017-Oct-15 23:30N 36°49' W 076°17'0 0.0
2017-Oct-15 23:00N 36°49' W 076°17'0 0.0
2017-Oct-15 22:30N 36°49' W 076°17'0 0.0
2017-Oct-15 22:00N 36°49' W 076°17'0 0.0
2017-Oct-15 21:30N 36°49' W 076°17'0 0.0
2017-Oct-15 21:00N 36°49' W 076°17'0 0.0
2017-Oct-15 20:30N 36°49' W 076°17'0 0.0
2017-Oct-15 20:00N 36°49' W 076°17'0 0.0
2017-Oct-15 19:30N 36°49' W 076°17'5 1.5
2017-Oct-15 15:47N 36°54' W 076°20'1 4.7
2017-Oct-15 15:30N 36°55' W 076°20'3 0.1
2017-Oct-13 18:01N 36°53' W 076°20'0 6.8
2017-Oct-13 17:59N 36°52' W 076°20'3 6.2
2017-Oct-13 17:30N 36°50' W 076°18'1 2.3
2017-Oct-13 17:00N 36°49' W 076°17'1 2.8
2017-Oct-13 16:30N 36°50' W 076°17'1 1.1
2017-Oct-13 16:00N 36°50' W 076°16'0 0.0
2017-Oct-13 15:30N 36°50' W 076°16'0 0.0
2017-Oct-13 15:00N 36°50' W 076°16'0 0.0
2017-Oct-13 14:30N 36°50' W 076°16'0 1.0
2017-Oct-13 14:00N 36°51' W 076°16'0 0.8
2017-Oct-13 13:30N 36°50' W 076°16'1 1.5
2017-Oct-13 13:00N 36°50' W 076°17'2 3.7
2017-Oct-13 12:30N 36°52' W 076°19'2 4.2
2017-Oct-13 12:00N 36°53' W 076°20'2 4.3
2017-Oct-13 11:30N 36°56' W 076°20'3 0.1
2017-Oct-11 19:28N 36°53' W 076°20'3 6.3
2017-Oct-11 19:00N 36°51' W 076°18'1 2.1
2017-Oct-11 18:24N 36°50' W 076°16'0 0.2
2017-Oct-11 17:59N 36°50' W 076°16'0 0.0
2017-Oct-11 17:30N 36°50' W 076°16'0 0.0
2017-Oct-11 16:59N 36°50' W 076°16'114 4.5
2017-Oct-10 15:15N 38°45' W 076°23'0 0.0
2017-Oct-10 14:53N 38°45' W 076°23'0 0.0
2017-Oct-10 13:56N 38°45' W 076°23'0 0.0
2017-Oct-10 13:15N 38°45' W 076°22'0 0.0
2017-Oct-10 13:00N 38°45' W 076°22'0 0.0
2017-Oct-10 12:30N 38°45' W 076°22'0 0.0
2017-Oct-10 12:00N 38°45' W 076°22'0 0.0
2017-Oct-10 11:30N 38°45' W 076°22'0 0.0
2017-Oct-10 10:58N 38°45' W 076°22'0 0.0
2017-Oct-10 10:30N 38°45' W 076°22'0 0.0
2017-Oct-10 09:59N 38°45' W 076°22'0 0.0
2017-Oct-10 09:30N 38°45' W 076°22'0 0.0
2017-Oct-10 09:01N 38°45' W 076°22'0 0.0
2017-Oct-10 08:30N 38°45' W 076°22'0 0.0
2017-Oct-10 08:00N 38°45' W 076°22'0 0.0
2017-Oct-10 07:31N 38°45' W 076°22'0 0.0
2017-Oct-10 07:01N 38°45' W 076°22'0 0.0
2017-Oct-10 06:31N 38°45' W 076°22'0 0.0
2017-Oct-10 06:00N 38°45' W 076°22'0 0.0
2017-Oct-10 05:31N 38°45' W 076°22'0 0.0
2017-Oct-10 05:00N 38°45' W 076°22'0 0.0
2017-Oct-10 04:30N 38°45' W 076°22'0 0.0
2017-Oct-10 04:01N 38°45' W 076°22'0 0.0
2017-Oct-09 13:29N 38°45' W 076°23'0 0.0
2017-Oct-09 12:25N 38°45' W 076°23'0 0.0
2017-Oct-09 11:21N 38°45' W 076°23'0 0.0
2017-Oct-09 10:37N 38°45' W 076°23'0 0.0
2017-Oct-09 10:22N 38°45' W 076°23'1 1.6
2017-Oct-09 10:00N 38°44' W 076°23'3 6.2
2017-Oct-09 09:30N 38°42' W 076°26'4 6.6
2017-Oct-09 08:56N 38°39' W 076°28'3 6.7
2017-Oct-09 08:28N 38°35' W 076°28'3 6.6
2017-Oct-09 07:57N 38°32' W 076°28'3 6.6
2017-Oct-09 07:29N 38°29' W 076°26'3 6.5
2017-Oct-09 07:00N 38°27' W 076°24'3 6.4
2017-Oct-09 06:30N 38°24' W 076°22'3 6.1
2017-Oct-09 06:00N 38°21' W 076°21'3 6.2
2017-Oct-09 05:30N 38°18' W 076°20'3 6.3
2017-Oct-09 05:00N 38°15' W 076°19'3 6.2
2017-Oct-09 04:27N 38°12' W 076°18'3 6.1
2017-Oct-09 03:57N 38°09' W 076°16'3 6.1
2017-Oct-09 03:26N 38°06' W 076°15'3 6.1
2017-Oct-09 03:00N 38°03' W 076°14'9 5.7
2017-Oct-09 01:24N 37°54' W 076°11'2 4.6
2017-Oct-09 00:58N 37°52' W 076°11'  

Dump ship's entire track history